EDT,Max TemperatureF,Mean TemperatureF,Min TemperatureF,Max Dew PointF,MeanDew PointF,Min DewpointF,Max Humidity, Mean Humidity, Min Humidity, Max Sea Level PressureIn, Mean Sea Level PressureIn, Min Sea Level PressureIn, Max VisibilityMiles, Mean VisibilityMiles, Min VisibilityMiles, Max Wind SpeedMPH, Mean Wind SpeedMPH, Max Gust SpeedMPH,PrecipitationIn, CloudCover, Events, WindDirDegrees
2013-4-1,62,48,36,43,36,8,93,68,28,29.79,29.63,29.52,10,8,2,25,9,33,0.18,6,Rain,289
2013-4-2,42,36,30,14,10,8,47,36,26,29.93,29.86,29.81,10,10,10,24,15,37,0.00,3,,263
2013-4-3,48,38,30,14,8,3,50,31,16,30.16,29.98,29.93,10,10,10,20,15,34,0.00,0,,276
2013-4-4,57,42,30,21,13,8,52,32,16,30.30,30.17,30.04,10,10,10,14,10,23,0.00,0,,256
2013-4-5,62,50,39,27,23,17,62,42,18,30.03,29.85,29.65,10,10,10,17,11,25,0.00,1,Rain,256
2013-4-6,46,38,30,20,7,-1,48,30,15,30.36,30.18,29.91,10,10,10,22,12,31,0.00,0,,315
2013-4-7,57,42,27,37,24,14,72,50,24,30.35,30.18,30.00,10,10,10,16,5,30,0.00,1,,199
2013-4-8,64,54,44,41,36,27,85,56,25,30.12,30.04,29.96,10,10,10,14,7,17,0.00,0,,254
2013-4-9,71,58,46,47,41,37,87,65,35,30.10,29.96,29.87,10,10,5,14,5,22,0.05,5,Rain-Thunderstorm,295
2013-4-10,61,53,46,46,44,40,89,77,55,30.01,29.95,29.89,10,9,2,8,3,,0.49,8,Rain,80
2013-4-11,53,48,43,45,38,23,93,73,37,30.17,30.00,29.86,10,8,3,13,6,24,0.08,8,Rain,27
2013-4-12,44,40,37,36,32,26,93,78,51,30.20,30.03,29.83,10,6,2,16,11,25,0.27,8,Rain,70
2013-4-13,54,44,36,37,34,32,93,75,48,29.95,29.86,29.80,10,9,2,15,9,25,0.06,8,Rain,346
2013-4-14,57,49,42,37,31,25,80,54,32,30.23,30.03,29.94,10,10,10,17,6,24,0.00,5,,277
2013-4-15,57,46,34,36,31,27,82,58,35,30.41,30.35,30.24,10,10,10,10,2,16,0.00,1,,137
2013-4-16,66,54,41,49,41,34,82,62,40,30.42,30.23,30.06,10,10,10,17,8,31,0.00,4,Rain,204
2013-4-17,66,56,46,52,35,25,77,45,22,30.35,30.18,30.06,10,10,10,16,11,23,0.00,3,,305
2013-4-18,61,50,39,40,31,22,67,46,26,30.45,30.33,30.17,10,10,10,14,5,23,0.00,3,,154
2013-4-19,78,66,54,61,55,43,94,75,48,30.15,29.91,29.65,10,9,2,23,9,38,0.00,8,,204
2013-4-20,68,58,45,63,41,20,89,64,32,30.21,29.82,29.62,10,9,4,20,12,32,0.44,5,Rain,277
2013-4-21,54,44,35,29,21,17,70,42,24,30.70,30.52,30.27,10,10,10,18,9,28,0.00,0,,308
2013-4-22,52,42,33,33,28,20,82,59,31,30.78,30.71,30.63,10,10,10,15,6,23,0.00,1,,61
2013-4-23,43,39,35,39,37,28,93,85,67,30.61,30.41,30.17,10,4,2,18,10,25,0.03,8,Rain,37
2013-4-24,75,58,42,49,44,39,89,67,38,30.11,29.92,29.80,10,9,3,16,10,22,0.00,4,,318
2013-4-25,64,57,46,52,35,21,88,50,23,30.29,30.05,29.83,10,10,4,17,11,26,0.03,3,Rain,273
2013-4-26,60,48,36,40,33,27,77,53,36,30.45,30.40,30.31,10,10,10,14,4,21,0.00,2,Rain,77
2013-4-27,64,52,39,40,34,29,89,55,29,30.44,30.38,30.32,10,10,8,9,2,,0.00,2,,140
2013-4-28,69,55,42,39,34,27,86,48,26,30.35,30.30,30.25,10,10,10,15,4,23,0.00,0,,159
2013-4-29,70,58,46,45,35,24,74,45,26,30.29,30.25,30.21,10,10,10,13,5,21,0.00,0,,190
2013-4-30,69,58,46,36,27,17,59,33,17,30.39,30.33,30.27,10,10,10,9,2,,0.00,0,,137